Airfield :
LOGIN :

Register | Disclaimer

   EN    FR    IT 

 










Legend :    VFR   Marginal VFR   IFR   Intensive IFR   Very Intensive IFR
Visi :
Ceiling :
>= 8 km
>= 3000ft
5 to 8 km
1000 to 3000 ft
1500m to 5 km
500 to 1000 ft
800 to 1500m
200 to 500 ft
< 800m
< 200 ft
Symbols :   Thunderstorms  Fog  Heavy snow  Heavy precipitations  Wind > 20 kt
SIGMETs :     Misc.  Thunderstorms  Icing  Turbulence  Mountain Waves  Volcanic Ashes







- Airport Elevation : 63 ft
- IATA code : BZM


EHWO - Woensdrecht Airbase

CURRENT METAR :
  • 222155Z AUTO 25008KT 220V300 9999 OVC034 19/16 Q1013 BLU

EXPIRED METARs :
  • 222125Z AUTO 28010KT 230V310 9999 BKN033 OVC180 19/15 Q1013 BLU
  • 222055Z AUTO 27013KT 230V310 9999 FEW017 OVC030 20/15 Q1013 BLU
  • 222040Z AUTO 26011KT 240V310 9999 FEW019 SCT024 OVC028 20/15 Q1012 WHT
  • 222025Z AUTO 27012KT 230V310 9999 FEW018 BKN030 OVC170 20/15 Q1012 BLU
  • 221955Z AUTO 27014KT 230V320 9999 FEW019 BKN033 BKN330 20/15 Q1012 BLU
  • 221925Z AUTO 27013KT 240V320 9999 FEW022 SCT230 OVC330 20/16 Q1012 BLU
  • 221908Z AUTO 26013KT 230V310 9999 FEW021 SCT027 OVC270 20/16 Q1012 BLU

Expired Forecast.
No reported NOTAMs for that airfield.



MET'MAP, your aeronautical weather chart ! - Copyright ORBIFLY December 2007 - Disclaimer

ORBIFLY MET'MAP TEAM :

Programming & Development : Alexandra Zaïnal
Concept & Development : Baudouin d'Aumeries
Co-Development & Prog : Marc-Olivier Méhu
Technical & hardware support : Manuel Goepfert

Contact : metmap@orbifly.com




SOURCES & CREDITS :

   NOAA